Time;durP1;ratioP1;P1;durP2;ratioP2;P2;SDS_P1;SDS_P2;PMS_P1;PMS_P2;Temp;Humidity;BMP_temperature;BMP_pressure;BME280_temperature;BME280_humidity;BME280_pressure;Samples;Min_cycle;Max_cycle;Signal;HPM_P1;HPM_P2
2022/06/14 00:03:14;;;;;;;4.78;2.78;;;;;;;15.60;71.76;96787.09;5031181;28;20061;-78
2022/06/14 00:05:40;;;;;;;4.88;2.70;;;;;;;15.58;72.02;96777.59;5030455;28;20053;-79
2022/06/14 00:08:09;;;;;;;5.10;3.08;;;;;;;15.53;70.58;96775.88;5030387;28;20053;-78
2022/06/14 00:10:37;;;;;;;3.95;2.85;;;;;;;15.49;69.46;96776.88;5030727;28;20045;-78
2022/06/14 00:13:04;;;;;;;4.43;2.60;;;;;;;15.45;69.45;96782.25;5029992;28;20061;-78
2022/06/14 00:15:30;;;;;;;4.25;2.63;;;;;;;15.40;69.45;96786.03;5030801;28;20042;-79
2022/06/14 00:17:57;;;;;;;5.43;3.15;;;;;;;15.44;70.47;96780.63;5030769;28;20049;-79
2022/06/14 00:20:23;;;;;;;7.13;2.75;;;;;;;15.39;71.24;96781.66;5030382;28;20050;-78
2022/06/14 00:22:50;;;;;;;4.47;2.90;;;;;;;15.39;71.85;96787.13;5030507;28;20041;-79
2022/06/14 00:25:25;;;;;;;3.92;2.60;;;;;;;15.40;72.33;96786.03;5030047;28;20057;-79
2022/06/14 00:27:53;;;;;;;4.95;2.60;;;;;;;15.38;71.65;96785.53;5030655;28;20136;-80
2022/06/14 00:30:22;;;;;;;6.30;3.10;;;;;;;15.35;72.55;96783.50;5029971;28;20463;-79
2022/06/14 00:32:49;;;;;;;6.43;2.95;;;;;;;15.36;73.34;96787.03;5030669;28;20412;-78
2022/06/14 00:35:15;;;;;;;6.72;2.75;;;;;;;15.34;73.09;96792.03;5029834;28;20053;-79
2022/06/14 00:37:42;;;;;;;3.17;2.53;;;;;;;15.31;73.41;96788.03;5030156;28;20405;-78
2022/06/14 00:40:11;;;;;;;8.52;2.75;;;;;;;15.28;73.77;96783.22;5029805;28;20452;-78
2022/06/14 00:42:39;;;;;;;5.85;3.15;;;;;;;15.31;75.47;96781.75;5030637;28;20049;-79
2022/06/14 00:45:08;;;;;;;4.90;2.83;;;;;;;15.28;75.99;96788.72;5029466;28;20052;-78
2022/06/14 00:47:40;;;;;;;4.65;3.08;;;;;;;15.23;76.01;96788.13;5030157;28;20046;-79
2022/06/14 00:50:15;;;;;;;4.65;2.80;;;;;;;15.23;75.72;96780.69;5030217;28;20424;-79
2022/06/14 00:52:46;;;;;;;6.88;3.20;;;;;;;15.18;74.36;96789.13;5030375;28;20133;-79
2022/06/14 00:55:17;;;;;;;4.97;3.10;;;;;;;15.17;74.64;96781.25;5029657;28;20045;-79
2022/06/14 00:57:50;;;;;;;3.97;2.65;;;;;;;15.13;74.68;96778.34;5030182;28;20416;-78
2022/06/14 01:00:20;;;;;;;5.93;2.92;;;;;;;15.11;75.25;96781.44;5029854;28;20046;-78
2022/06/14 01:02:51;;;;;;;4.35;2.65;;;;;;;15.06;75.33;96775.38;5030213;28;20049;-79
2022/06/14 01:05:22;;;;;;;4.57;3.03;;;;;;;15.02;75.04;96768.94;5029651;28;20049;-79
2022/06/14 01:07:53;;;;;;;5.32;3.05;;;;;;;14.98;75.00;96773.50;5030081;28;20516;-79
2022/06/14 01:10:26;;;;;;;4.50;2.92;;;;;;;15.02;75.96;96779.91;5029875;28;20045;-79
2022/06/14 01:12:56;;;;;;;4.63;2.92;;;;;;;15.01;75.04;96778.31;5029199;28;20060;-79
2022/06/14 01:15:25;;;;;;;6.65;2.80;;;;;;;14.91;74.58;96778.72;5029968;28;20049;-78
2022/06/14 01:17:58;;;;;;;4.93;2.92;;;;;;;14.88;75.63;96778.28;5032213;28;20523;-79
2022/06/14 01:20:25;;;;;;;4.78;2.75;;;;;;;14.87;74.86;96779.38;5033412;28;20488;-78
2022/06/14 01:22:53;;;;;;;4.85;3.20;;;;;;;14.79;74.66;96782.22;5040138;28;20045;-80
2022/06/14 01:25:21;;;;;;;5.88;3.25;;;;;;;14.74;75.08;96775.00;5043462;28;20041;-79
2022/06/14 01:27:47;;;;;;;6.55;2.95;;;;;;;14.73;76.08;96781.63;5038236;28;20052;-78
2022/06/14 01:30:16;;;;;;;5.78;3.55;;;;;;;14.72;76.22;96780.03;5034929;28;20432;-78
2022/06/14 01:32:50;;;;;;;3.95;2.97;;;;;;;14.68;76.18;96779.06;5033993;28;20056;-79
2022/06/14 01:35:20;;;;;;;6.10;3.47;;;;;;;14.63;76.52;96776.53;5033140;28;20049;-78
2022/06/14 01:37:49;;;;;;;4.72;3.15;;;;;;;14.61;76.27;96776.84;5033654;28;20052;-78
2022/06/14 01:40:18;;;;;;;3.80;2.92;;;;;;;14.64;76.72;96769.91;5033249;28;20046;-78
2022/06/14 01:43:20;;;;;;;4.10;2.70;;;;;;;14.58;75.97;96777.53;5033409;28;20053;-78
2022/06/14 01:45:59;;;;;;;5.68;2.97;;;;;;;14.50;76.52;96774.84;4999647;28;20045;-79
2022/06/14 01:48:31;;;;;;;4.95;2.97;;;;;;;14.46;77.05;96774.69;5034209;28;20041;-79
2022/06/14 01:53:55;;;;;;;5.70;3.28;;;;;;;14.25;76.71;96774.66;5033159;28;20056;-79
2022/06/14 01:56:33;;;;;;;6.20;3.30;;;;;;;14.30;77.28;96777.22;5032868;28;20049;-80
2022/06/14 01:59:05;;;;;;;7.30;3.95;;;;;;;14.15;78.18;96775.03;5015293;28;20052;-80
2022/06/14 02:01:38;;;;;;;5.50;3.72;;;;;;;14.16;77.97;96771.16;5033037;28;20041;-79
2022/06/14 02:07:08;;;;;;;5.85;3.63;;;;;;;14.13;78.36;96771.00;5032913;28;20511;-79
2022/06/14 02:09:52;;;;;;;6.00;3.03;;;;;;;14.05;78.40;96769.94;5032687;28;20045;-79
2022/06/14 02:12:28;;;;;;;7.32;3.67;;;;;;;13.94;78.53;96768.69;5031090;28;20661;-79
2022/06/14 02:15:00;;;;;;;5.95;3.35;;;;;;;14.01;79.10;96777.19;5032041;28;20054;-79
2022/06/14 02:17:33;;;;;;;5.60;3.40;;;;;;;14.08;79.24;96769.25;5032172;28;20056;-79
2022/06/14 02:20:02;;;;;;;4.20;2.70;;;;;;;14.01;79.11;96775.25;5014906;28;20589;-80
2022/06/14 02:22:33;;;;;;;4.30;2.92;;;;;;;13.95;79.41;96767.56;5032174;28;20128;-79
2022/06/14 02:25:05;;;;;;;4.40;3.40;;;;;;;13.97;80.37;96773.50;5032587;28;20053;-79
2022/06/14 02:27:39;;;;;;;5.13;3.10;;;;;;;13.95;80.27;96778.53;5032080;28;20037;-80
2022/06/14 02:30:12;;;;;;;6.00;3.45;;;;;;;13.92;80.05;96771.75;5031407;28;20054;-79
2022/06/14 02:32:42;;;;;;;5.68;3.72;;;;;;;13.88;79.40;96768.06;5032415;28;20057;-79
2022/06/14 02:35:13;;;;;;;4.80;3.75;;;;;;;13.81;79.83;96771.31;5032056;28;20045;-80
2022/06/14 02:37:45;;;;;;;5.53;3.33;;;;;;;13.83;80.07;96774.56;5032270;28;20045;-78
2022/06/14 02:40:18;;;;;;;4.88;3.28;;;;;;;13.82;80.07;96764.72;5031707;28;20045;-78
2022/06/14 02:42:52;;;;;;;5.03;3.33;;;;;;;13.76;79.81;96759.75;5031147;28;20053;-79
2022/06/14 02:45:24;;;;;;;7.40;3.80;;;;;;;13.69;80.12;96763.00;5031564;28;20512;-78
2022/06/14 02:47:57;;;;;;;4.72;3.55;;;;;;;13.71;80.87;96768.16;5031875;28;20049;-79
2022/06/14 02:50:28;;;;;;;6.72;3.70;;;;;;;13.71;80.42;96765.41;5031685;28;20052;-79
2022/06/14 02:53:00;;;;;;;4.50;3.40;;;;;;;13.65;80.65;96767.53;5032203;28;20053;-79
2022/06/14 02:55:32;;;;;;;6.60;4.00;;;;;;;13.64;80.86;96765.91;5031910;28;20061;-79
2022/06/14 02:58:04;;;;;;;5.22;3.40;;;;;;;13.71;81.08;96768.16;5031881;28;20048;-80
2022/06/14 03:00:37;;;;;;;5.20;3.53;;;;;;;13.65;80.66;96767.53;5031906;28;20041;-80
2022/06/14 03:03:08;;;;;;;6.80;3.60;;;;;;;13.60;80.12;96764.16;5031760;28;20072;-80
2022/06/14 03:05:39;;;;;;;5.70;4.00;;;;;;;13.58;80.02;96759.81;5032068;28;20562;-79
2022/06/14 03:08:12;;;;;;;4.80;3.38;;;;;;;13.52;80.28;96757.56;5031547;28;20068;-78
2022/06/14 03:10:50;;;;;;;7.90;3.80;;;;;;;13.48;80.68;96762.13;5032266;28;20592;-79
2022/06/14 03:13:28;;;;;;;7.20;3.58;;;;;;;13.43;80.58;96762.28;5031078;28;20053;-79
2022/06/14 03:16:02;;;;;;;4.40;3.45;;;;;;;13.42;80.51;96763.44;5031774;28;20053;-79
2022/06/14 03:18:36;;;;;;;10.32;3.45;;;;;;;13.43;80.77;96762.28;5031564;28;20056;-79
2022/06/14 03:21:11;;;;;;;6.53;4.32;;;;;;;13.42;81.49;96763.44;5031035;28;20049;-78
2022/06/14 03:23:47;;;;;;;5.35;3.17;;;;;;;13.43;81.91;96765.03;5031658;28;20056;-79
2022/06/14 03:26:19;;;;;;;5.18;3.70;;;;;;;13.48;82.02;96767.59;5031145;28;20060;-79
2022/06/14 03:28:51;;;;;;;6.00;3.80;;;;;;;13.44;81.21;96766.63;5031921;28;20057;-79
2022/06/14 03:31:23;;;;;;;7.43;3.80;;;;;;;13.43;82.22;96770.50;5031315;28;20054;-78
2022/06/14 03:33:58;;;;;;;4.38;3.45;;;;;;;13.46;83.04;96769.81;5031463;28;20284;-79
2022/06/14 03:36:26;;;;;;;5.32;3.70;;;;;;;13.46;82.66;96775.31;5031030;28;20045;-78
2022/06/14 03:38:54;;;;;;;5.85;3.70;;;;;;;13.46;82.30;96769.81;5031242;28;20057;-78
2022/06/14 03:41:24;;;;;;;6.53;3.35;;;;;;;13.45;81.72;96766.28;5029732;28;20050;-79
2022/06/14 03:43:57;;;;;;;4.40;3.40;;;;;;;13.43;81.72;96770.50;5031543;28;20493;-78
2022/06/14 03:46:31;;;;;;;9.52;3.70;;;;;;;13.40;82.24;96760.19;5031164;28;20053;-79
2022/06/14 03:49:02;;;;;;;4.88;3.65;;;;;;;13.48;82.44;96762.13;5031208;28;20128;-79
2022/06/14 03:51:41;;;;;;;4.63;3.15;;;;;;;13.50;81.92;96765.31;5031178;28;20068;-78
2022/06/14 03:54:23;;;;;;;6.47;3.50;;;;;;;13.53;82.29;96764.69;5030919;28;20057;-78
2022/06/14 03:57:02;;;;;;;4.40;3.60;;;;;;;13.48;81.98;96773.84;5031373;28;20072;-79
2022/06/14 03:59:57;;;;;;;4.63;3.33;;;;;;;13.47;81.75;96766.00;5030799;28;20045;-79
2022/06/14 04:05:43;;;;;;;5.88;3.28;;;;;;;13.38;81.42;96765.19;5029804;28;20045;-78
2022/06/14 04:08:21;;;;;;;5.72;3.50;;;;;;;13.32;81.90;96770.84;5030560;28;20060;-79
2022/06/14 04:10:57;;;;;;;5.57;3.33;;;;;;;13.29;81.58;96771.47;5030629;28;20045;-78
2022/06/14 04:13:32;;;;;;;4.00;3.08;;;;;;;13.22;82.10;96775.84;5027698;28;20049;-78
2022/06/14 04:16:05;;;;;;;4.18;3.10;;;;;;;13.18;82.35;96772.91;5029915;28;20053;-79
2022/06/14 04:18:46;;;;;;;3.97;2.65;;;;;;;13.21;83.09;96776.97;5030308;28;20037;-78
2022/06/14 04:21:26;;;;;;;6.00;3.75;;;;;;;13.25;82.93;96775.19;5030041;28;20049;-78
2022/06/14 04:23:58;;;;;;;6.32;3.60;;;;;;;13.27;82.69;96776.47;5030721;28;20049;-79
2022/06/14 04:26:31;;;;;;;6.57;4.07;;;;;;;13.31;82.47;96774.72;5030218;28;20049;-79
2022/06/14 04:29:01;;;;;;;;;;;;;;;13.34;81.95;96775.97;5031056;28;20045;-78
2022/06/14 04:31:32;;;;;;;5.75;3.63;;;;;;;13.34;81.64;96778.72;5030660;28;19925;-79
2022/06/14 04:34:07;;;;;;;5.53;3.60;;;;;;;13.37;82.35;96777.28;5030768;28;20056;-78
2022/06/14 04:36:39;;;;;;;7.97;3.60;;;;;;;13.29;82.85;96776.94;5030275;28;20095;-79
2022/06/14 04:39:12;;;;;;;5.25;3.72;;;;;;;13.28;83.60;96775.34;5030018;28;20052;-78
2022/06/14 04:41:46;;;;;;;6.78;3.50;;;;;;;13.33;84.27;96771.66;5030121;28;20045;-78
2022/06/14 04:44:21;;;;;;;6.22;3.78;;;;;;;13.42;84.57;96772.44;5029356;28;20123;-78
2022/06/14 04:46:55;;;;;;;7.03;4.45;;;;;;;13.48;84.48;96773.06;5030757;28;20448;-79
2022/06/14 04:49:27;;;;;;;6.43;4.78;;;;;;;13.53;84.96;96776.41;5029934;28;20053;-79
2022/06/14 04:52:00;;;;;;;9.77;5.43;;;;;;;13.59;84.82;96779.78;5031374;28;20041;-79
2022/06/14 04:54:34;;;;;;;7.85;4.82;;;;;;;13.60;84.94;96789.59;5034091;28;20045;-79
2022/06/14 04:57:05;;;;;;;9.35;4.72;;;;;;;13.64;84.96;96787.00;5034339;28;20421;-78
2022/06/14 04:59:36;;;;;;;7.68;4.78;;;;;;;13.60;84.53;96780.59;5034357;28;20056;-80
2022/06/14 05:02:09;;;;;;;7.43;5.05;;;;;;;13.62;84.57;96781.84;5033727;28;20046;-78
2022/06/14 05:04:42;;;;;;;6.75;4.68;;;;;;;13.63;84.03;96780.75;5034123;28;20049;-79
2022/06/14 05:07:12;;;;;;;6.22;4.70;;;;;;;13.62;83.87;96784.59;5033980;28;20041;-78
2022/06/14 05:09:44;;;;;;;8.90;4.55;;;;;;;13.62;83.49;96783.78;5034272;28;20045;-78
2022/06/14 05:12:17;;;;;;;9.38;4.72;;;;;;;13.65;82.04;96783.13;5033262;28;20103;-79
2022/06/14 05:14:48;;;;;;;7.13;4.72;;;;;;;13.70;81.99;96777.50;5034257;28;20048;-78
2022/06/14 05:17:23;;;;;;;8.98;5.07;;;;;;;13.73;80.99;96779.56;5037231;28;20049;-84
2022/06/14 05:19:53;;;;;;;11.70;3.85;;;;;;;13.77;80.54;96775.84;5052155;28;20049;-83
2022/06/14 05:22:30;;;;;;;8.13;4.75;;;;;;;13.83;80.02;96779.19;5087345;22;20045;-84
2022/06/14 05:24:57;;;;;;;10.77;4.90;;;;;;;13.86;80.19;96780.47;5089076;28;20056;-82
2022/06/14 05:27:41;;;;;;;7.35;3.83;;;;;;;13.97;81.19;96781.72;5087388;28;20108;-82
2022/06/14 05:30:18;;;;;;;7.25;3.70;;;;;;;14.08;81.07;96780.22;5083533;28;20048;-78
2022/06/14 05:32:51;;;;;;;8.45;4.40;;;;;;;14.18;81.08;96779.84;5076436;28;20090;-79
2022/06/14 05:35:32;;;;;;;7.43;4.22;;;;;;;14.29;80.24;96791.22;5076213;28;20045;-82
2022/06/14 05:38:11;;;;;;;6.70;4.10;;;;;;;14.38;77.23;96785.69;5077396;28;20044;-79
2022/06/14 05:40:45;;;;;;;9.82;3.70;;;;;;;14.43;77.34;96790.97;5078191;28;20040;-81
2022/06/14 05:43:15;;;;;;;8.65;4.32;;;;;;;14.51;76.43;96788.22;5059127;28;20041;-78
2022/06/14 05:45:45;;;;;;;8.75;4.78;;;;;;;14.54;76.25;96792.22;5058594;28;20079;-79
2022/06/14 05:48:18;;;;;;;8.20;3.80;;;;;;;14.53;75.62;96791.44;5057261;28;20105;-80
2022/06/14 05:50:51;;;;;;;7.60;3.97;;;;;;;14.62;75.48;96788.63;5057031;28;20447;-80
2022/06/14 05:53:23;;;;;;;6.75;3.40;;;;;;;14.72;76.72;96795.63;5057460;28;20049;-80
2022/06/14 05:55:54;;;;;;;6.40;3.45;;;;;;;14.81;76.91;96801.88;5057349;28;20045;-79
2022/06/14 05:58:28;;;;;;;10.50;3.85;;;;;;;14.91;75.29;96798.72;5055900;28;21005;-79
2022/06/14 06:00:56;;;;;;;;;;;;;;;14.99;72.16;96805.28;5057551;28;20052;-80
2022/06/14 06:03:32;;;;;;;8.70;3.20;;;;;;;15.14;70.16;96799.19;5054909;28;19921;-80
2022/06/14 06:06:02;;;;;;;6.78;3.28;;;;;;;15.25;70.40;96799.56;5056730;28;20051;-79
2022/06/14 06:08:37;;;;;;;6.32;3.30;;;;;;;15.32;69.86;96808.84;5055118;28;20037;-79
2022/06/14 06:11:08;;;;;;;5.82;2.95;;;;;;;15.40;66.75;96801.69;5054584;28;20049;-81
2022/06/14 06:13:40;;;;;;;8.52;3.20;;;;;;;15.49;66.84;96798.84;5056898;28;20051;-79
2022/06/14 06:16:12;;;;;;;5.07;3.00;;;;;;;15.55;66.89;96794.72;5056657;28;20542;-81
2022/06/14 06:18:48;;;;;;;7.83;3.10;;;;;;;15.43;59.24;96800.19;5063222;28;20068;-80
2022/06/14 06:21:24;;;;;;;6.18;2.80;;;;;;;15.58;59.32;96802.31;5055507;28;20125;-79
2022/06/14 06:23:58;;;;;;;7.35;2.97;;;;;;;15.57;58.01;96801.50;5055500;28;20048;-81
2022/06/14 06:26:28;;;;;;;;;;;;;;;15.72;59.04;96800.09;5062493;28;20048;-83
2022/06/14 06:28:57;;;;;;;5.25;2.90;;;;;;;15.99;61.45;96808.81;5063347;28;19921;-82
2022/06/14 06:31:31;;;;;;;6.43;2.83;;;;;;;16.11;61.11;96803.31;5063811;28;20487;-82
2022/06/14 06:34:05;;;;;;;8.18;3.40;;;;;;;16.23;60.33;96811.56;5051735;28;20433;-81
2022/06/14 06:36:46;;;;;;;7.75;3.17;;;;;;;16.30;58.88;96811.81;5058674;28;20045;-81
2022/06/14 06:39:26;;;;;;;5.75;2.88;;;;;;;16.34;57.14;96807.25;5057153;28;20049;-79
2022/06/14 06:41:57;;;;;;;7.47;3.00;;;;;;;16.29;55.98;96804.72;5064351;28;20041;-80
2022/06/14 06:44:29;;;;;;;6.38;2.90;;;;;;;16.44;57.70;96798.53;5076809;28;20071;-81
2022/06/14 06:47:02;;;;;;;6.60;2.90;;;;;;;16.59;57.41;96802.50;5077904;28;20040;-81
2022/06/14 06:49:41;;;;;;;7.28;3.40;;;;;;;16.52;53.96;96804.25;5068322;28;20067;-81
2022/06/14 06:52:14;;;;;;;10.27;3.00;;;;;;;16.50;51.35;96798.28;5080988;28;20041;-80
2022/06/14 06:54:49;;;;;;;10.00;3.35;;;;;;;16.55;54.27;96801.59;5085041;28;20127;-82
2022/06/14 06:57:22;;;;;;;6.97;3.47;;;;;;;16.73;54.33;96795.88;5079935;28;20050;-79
2022/06/14 06:59:51;;;;;;;6.80;3.15;;;;;;;16.86;56.84;96792.75;5077292;28;20045;-81
2022/06/14 07:02:23;;;;;;;6.40;3.30;;;;;;;16.74;53.28;96803.78;5076873;28;20445;-81
2022/06/14 07:05:05;;;;;;;5.32;3.03;;;;;;;16.91;54.49;96802.69;5077458;28;20051;-79
2022/06/14 07:07:41;;;;;;;8.98;3.65;;;;;;;16.97;56.16;96800.53;5077576;28;20048;-78
2022/06/14 07:10:17;;;;;;;6.55;3.30;;;;;;;17.06;56.37;96803.91;5075665;28;20056;-81
2022/06/14 07:12:46;;;;;;;8.63;4.00;;;;;;;16.93;55.63;96800.41;5060676;28;20546;-79
2022/06/14 07:15:16;;;;;;;6.70;3.03;;;;;;;17.05;56.92;96799.56;5056036;28;20080;-79
2022/06/14 07:17:50;;;;;;;5.18;3.10;;;;;;;17.20;57.95;96796.88;5038303;28;20064;-80
2022/06/14 07:20:34;;;;;;;4.72;3.30;;;;;;;17.44;58.56;96800.69;5056722;28;20050;-81
2022/06/14 07:23:10;;;;;;;7.63;3.25;;;;;;;17.54;57.18;96802.94;5058391;28;20045;-82
2022/06/14 07:25:46;;;;;;;7.38;3.40;;;;;;;17.47;55.78;96803.50;5057997;28;20041;-80
2022/06/14 07:28:16;;;;;;;6.03;3.22;;;;;;;17.62;53.29;96803.91;5058964;28;20416;-80
2022/06/14 07:30:49;;;;;;;6.85;3.63;;;;;;;17.72;55.97;96808.91;5057786;28;20136;-82
2022/06/14 07:33:17;;;;;;;6.75;3.15;;;;;;;17.73;54.48;96799.50;5059349;28;20573;-81
2022/06/14 07:35:50;;;;;;;7.57;3.30;;;;;;;17.89;52.24;96794.81;5063094;28;20053;-81
2022/06/14 07:38:24;;;;;;;7.82;3.10;;;;;;;17.86;49.27;96797.50;5065309;28;20045;-81
2022/06/14 07:40:58;;;;;;;8.25;3.20;;;;;;;18.11;50.87;96795.34;5066298;28;20045;-81
2022/06/14 07:43:30;;;;;;;11.27;3.10;;;;;;;17.95;49.90;96792.59;5064022;28;20048;-81
2022/06/14 07:46:04;;;;;;;6.47;2.85;;;;;;;18.11;50.57;96798.91;5060593;28;20041;-81
2022/06/14 07:48:35;;;;;;;6.93;3.08;;;;;;;18.29;52.05;96791.09;5066734;28;20037;-81
2022/06/14 07:51:07;;;;;;;7.20;3.22;;;;;;;18.34;48.14;96803.81;5067775;28;20056;-78
2022/06/14 07:53:39;;;;;;;7.37;3.23;;;;;;;18.46;47.04;96787.94;5058802;28;20562;-82
2022/06/14 07:56:09;;;;;;;7.68;3.20;;;;;;;18.55;46.49;96795.22;5055720;28;20052;-82
2022/06/14 07:58:43;;;;;;;6.47;3.17;;;;;;;18.74;47.84;96798.03;5047915;28;20076;-80
2022/06/14 08:01:15;;;;;;;8.65;3.03;;;;;;;18.86;47.88;96795.19;5063189;28;20045;-80
2022/06/14 08:03:48;;;;;;;6.28;3.03;;;;;;;19.06;47.80;96797.97;5061206;28;20049;-83
2022/06/14 08:08:44;;;;;;;5.88;2.83;;;;;;;19.22;48.55;96795.94;5092176;22;20053;-81
2022/06/14 08:11:18;;;;;;;7.68;3.55;;;;;;;19.23;45.86;96798.31;5058114;28;20051;-81
2022/06/14 08:13:51;;;;;;;5.75;3.00;;;;;;;19.95;44.98;96789.47;5063489;28;20045;-82
2022/06/14 08:16:20;;;;;;;7.90;3.13;;;;;;;20.83;43.59;96788.50;5063718;28;20051;-82
2022/06/14 08:18:52;;;;;;;6.65;3.25;;;;;;;21.38;42.40;96786.06;5066124;28;20071;-80
2022/06/14 08:21:26;;;;;;;5.93;2.80;;;;;;;21.45;39.46;96791.66;5063598;28;20049;-81
2022/06/14 08:23:58;;;;;;;7.78;2.80;;;;;;;21.08;39.82;96792.38;5066359;28;20075;-84
2022/06/14 08:26:29;;;;;;;12.18;3.33;;;;;;;21.14;41.32;96792.03;5062612;28;20060;-80
2022/06/14 08:29:02;;;;;;;5.90;2.35;;;;;;;21.43;40.31;96794.03;5062365;28;20052;-82
2022/06/14 08:31:47;;;;;;;11.20;3.33;;;;;;;21.21;39.84;96786.63;5051205;28;20098;-84
2022/06/14 08:34:18;;;;;;;5.47;2.70;;;;;;;21.41;43.91;96793.63;5064930;28;20041;-82
2022/06/14 08:36:54;;;;;;;8.07;3.20;;;;;;;21.54;48.73;96789.41;5064947;28;20052;-81
2022/06/14 08:39:27;;;;;;;5.68;2.78;;;;;;;21.57;41.61;96799.75;5039163;28;20056;-82
2022/06/14 08:42:09;;;;;;;9.02;3.05;;;;;;;21.54;40.17;96799.69;5035596;28;20412;-84
2022/06/14 08:44:41;;;;;;;4.97;2.78;;;;;;;21.92;42.56;96795.72;5023165;28;20037;-80
2022/06/14 08:47:43;;;;;;;7.88;2.60;;;;;;;21.99;43.37;96790.25;5022758;28;20065;-83
2022/06/14 08:50:29;;;;;;;10.07;3.20;;;;;;;21.92;40.83;96792.94;5016584;28;20049;-81
2022/06/14 08:53:35;;;;;;;6.15;2.53;;;;;;;22.10;42.05;96793.13;5021965;28;20049;-81
2022/06/14 08:56:30;;;;;;;6.40;2.65;;;;;;;22.14;39.29;96794.00;5004032;28;20046;-81
2022/06/14 08:59:23;;;;;;;5.68;2.90;;;;;;;21.81;41.16;96792.84;5022257;28;20050;-81
2022/06/14 09:02:11;;;;;;;4.90;2.53;;;;;;;21.85;41.76;96790.13;5002365;28;20042;-83
2022/06/14 09:05:06;;;;;;;4.40;2.30;;;;;;;21.90;38.89;96789.78;5019894;28;20053;-80
2022/06/14 09:08:03;;;;;;;4.80;2.30;;;;;;;22.30;43.06;96779.88;5018617;28;20042;-83
2022/06/14 09:10:54;;;;;;;6.40;2.63;;;;;;;22.51;43.70;96780.03;5023414;28;20057;-84
2022/06/14 09:13:35;;;;;;;7.95;3.00;;;;;;;22.61;41.37;96773.75;5042131;28;20056;-82
2022/06/14 09:16:23;;;;;;;6.07;3.10;;;;;;;22.74;41.86;96779.78;5043260;28;20036;-80
2022/06/14 09:19:00;;;;;;;5.55;2.85;;;;;;;22.90;40.00;96773.94;5040804;28;20535;-83
2022/06/14 09:24:34;;;;;;;7.13;2.92;;;;;;;22.60;37.78;96772.16;5027006;28;20037;-81
2022/06/14 09:27:09;;;;;;;5.88;3.15;;;;;;;22.19;39.46;96762.34;5034575;28;20053;-81
2022/06/14 09:30:13;;;;;;;5.05;2.60;;;;;;;21.67;38.51;96769.75;5110803;22;20041;-83
2022/06/14 09:33:27;;;;;;;5.13;2.47;;;;;;;22.01;40.98;96765.72;5051052;28;20041;-83
2022/06/14 09:36:23;;;;;;;5.43;2.35;;;;;;;22.20;39.98;96764.72;5049890;28;20132;-83
2022/06/14 09:39:12;;;;;;;4.20;2.53;;;;;;;22.44;44.34;96763.31;5037231;28;20049;-82
2022/06/14 09:42:25;;;;;;;5.10;2.20;;;;;;;22.76;44.94;96757.16;5056025;28;20032;-83
2022/06/14 09:45:17;;;;;;;9.77;2.97;;;;;;;22.80;42.35;96769.09;5056720;28;20022;-83
2022/06/14 09:48:18;;;;;;;8.85;2.95;;;;;;;22.95;42.02;96770.00;5054922;28;20049;-82
2022/06/14 09:53:54;;;;;;;6.85;2.53;;;;;;;23.16;44.49;96770.91;5197438;22;20021;-85
2022/06/14 09:56:52;;;;;;;6.88;2.95;;;;;;;23.27;43.95;96770.16;5038736;28;20161;-83
2022/06/14 09:59:49;;;;;;;6.25;2.42;;;;;;;23.28;40.72;96768.97;5040539;28;20057;-84
2022/06/14 10:05:01;;;;;;;6.53;2.60;;;;;;;23.02;38.62;96758.94;5093449;22;20549;-84
2022/06/14 10:07:48;;;;;;;5.80;2.42;;;;;;;23.15;40.11;96763.75;5059994;28;20033;-84
2022/06/14 10:10:49;;;;;;;5.43;2.55;;;;;;;23.04;42.27;96757.38;5076136;28;20067;-85
2022/06/14 10:15:51;;;;;;;5.93;2.30;;;;;;;23.19;37.68;96752.66;5133059;22;20048;-84
2022/06/14 10:18:31;;;;;;;6.45;2.60;;;;;;;22.77;36.10;96759.56;5076124;28;20064;-81
2022/06/14 10:21:04;;;;;;;5.03;2.60;;;;;;;22.71;43.22;96752.81;5076788;28;20056;-85
2022/06/14 10:24:17;;;;;;;6.10;2.50;;;;;;;23.14;40.78;96756.63;5071446;22;20021;-82
2022/06/14 10:30:00;;;;;;;4.68;2.50;;;;;;;23.23;42.19;96758.22;5075751;22;20055;-83
2022/06/14 10:33:03;;;;;;;5.88;2.50;;;;;;;22.88;40.23;96749.34;5047846;28;20079;-83
2022/06/14 10:38:18;;;;;;;6.78;2.40;;;;;;;23.11;40.65;96749.06;5089257;22;20116;-83
2022/06/14 10:40:55;;;;;;;8.73;2.97;;;;;;;22.97;41.93;96748.19;5075181;28;20052;-83
2022/06/14 10:45:57;;;;;;;7.93;2.50;;;;;;;23.00;39.16;96739.09;5052817;28;20025;-85
2022/06/14 10:48:54;;;;;;;6.97;2.90;;;;;;;23.12;40.85;96736.75;5153122;22;20043;-81
2022/06/14 10:51:59;;;;;;;6.35;2.38;;;;;;;23.32;37.01;96747.53;5026626;28;20108;-83
2022/06/14 10:57:36;;;;;;;6.25;2.50;;;;;;;22.99;40.56;96743.84;5079899;23;20049;-84
2022/06/14 11:00:25;;;;;;;5.65;2.22;;;;;;;22.98;40.27;96739.50;5073493;28;20035;-83
2022/06/14 11:03:34;;;;;;;7.93;2.70;;;;;;;23.00;40.85;96736.31;5047197;28;20033;-84
2022/06/14 11:06:29;;;;;;;4.07;2.20;;;;;;;23.06;43.05;96727.22;5069323;28;20033;-84
2022/06/14 11:09:07;;;;;;;4.00;2.15;;;;;;;22.96;40.24;96727.94;5247618;22;20052;-86
2022/06/14 11:11:49;;;;;;;6.18;2.47;;;;;;;22.91;41.89;96725.56;5074480;28;20041;-85
2022/06/14 11:14:29;;;;;;;7.78;2.42;;;;;;;22.90;42.37;96723.97;5072750;28;20113;-84
2022/06/14 11:17:24;;;;;;;4.10;1.83;;;;;;;22.62;39.87;96730.94;5051967;22;20077;-85
2022/06/14 11:20:05;;;;;;;5.97;1.83;;;;;;;23.01;38.94;96724.00;5036554;28;20053;-86
2022/06/14 11:22:39;;;;;;;6.53;2.00;;;;;;;22.74;39.17;96723.47;5160874;22;20029;-83
2022/06/14 11:25:20;;;;;;;5.85;2.13;;;;;;;22.77;39.29;96725.47;5029886;28;20466;-83
2022/06/14 11:28:02;;;;;;;10.60;2.60;;;;;;;22.55;37.83;96725.34;5040889;22;20049;-84
2022/06/14 11:33:15;;;;;;;7.20;2.53;;;;;;;22.26;41.67;96721.56;5235413;22;20033;-81
2022/06/14 11:35:56;;;;;;;4.53;2.33;;;;;;;22.37;41.18;96718.88;5076117;28;20055;-80
2022/06/14 11:38:55;;;;;;;5.32;2.00;;;;;;;22.67;37.18;96716.69;5145254;22;20111;-82
2022/06/14 11:41:26;;;;;;;6.05;2.40;;;;;;;22.71;41.94;96715.91;5390756;22;20040;-86
2022/06/14 11:44:10;;;;;;;4.57;2.30;;;;;;;22.81;40.82;96709.59;5080931;22;20045;-86
2022/06/14 11:46:45;;;;;;;7.18;3.10;;;;;;;22.46;41.55;96708.25;5074839;28;20103;-85
2022/06/14 11:49:21;;;;;;;4.72;2.35;;;;;;;22.64;41.92;96709.13;5075456;28;20045;-84
2022/06/14 11:54:24;;;;;;;7.93;2.13;;;;;;;22.49;36.34;96701.91;5091756;22;20049;-86
2022/06/14 11:59:53;;;;;;;8.13;2.58;;;;;;;22.90;43.42;96696.19;5145502;22;20041;-86
2022/06/14 12:02:38;;;;;;;4.55;2.53;;;;;;;22.94;39.12;96702.56;5071530;28;20110;-86
2022/06/14 12:05:14;;;;;;;7.07;2.50;;;;;;;22.85;40.30;96696.53;5074595;28;20055;-84
2022/06/14 12:07:43;;;;;;;5.18;2.30;;;;;;;22.91;40.08;96692.22;5073545;28;20072;-85
2022/06/14 12:10:35;;;;;;;8.40;2.25;;;;;;;22.77;41.55;96703.25;5055927;28;20068;-86
2022/06/14 12:13:15;;;;;;;7.22;2.45;;;;;;;22.65;38.06;96698.81;5073263;28;20113;-78
2022/06/14 12:15:52;;;;;;;5.88;2.70;;;;;;;22.60;39.84;96693.63;5059162;28;20093;-86
2022/06/14 12:18:22;;;;;;;5.57;2.50;;;;;;;22.78;40.52;96693.75;5072670;28;20064;-82
2022/06/14 12:21:01;;;;;;;4.53;2.42;;;;;;;22.66;39.20;96686.56;5057475;28;20048;-86
2022/06/14 12:23:32;;;;;;;4.93;2.00;;;;;;;22.84;37.11;96687.41;5074141;28;20044;-85
2022/06/14 12:28:59;;;;;;;4.70;2.58;;;;;;;22.39;34.96;96683.19;5245360;22;20108;-86
2022/06/14 12:31:38;;;;;;;6.60;2.38;;;;;;;22.10;33.40;96683.03;5197201;22;20080;-86
2022/06/14 12:34:15;;;;;;;4.82;1.80;;;;;;;22.33;38.16;96679.22;5219150;22;20117;-82
2022/06/14 12:36:51;;;;;;;5.68;2.28;;;;;;;22.37;40.95;96677.25;5072531;28;20055;-83
2022/06/14 12:39:24;;;;;;;7.22;2.53;;;;;;;22.56;40.96;96676.97;5528400;22;20117;-85
2022/06/14 12:42:03;;;;;;;4.18;2.17;;;;;;;22.79;37.97;96671.13;5071919;28;20056;-84
2022/06/14 12:47:20;;;;;;;4.35;2.25;;;;;;;22.80;37.21;96671.91;5028601;28;20057;-78
2022/06/14 12:49:51;;;;;;;7.60;2.08;;;;;;;22.83;38.45;96669.16;5027491;28;20528;-86
2022/06/14 12:52:25;;;;;;;5.35;2.25;;;;;;;22.70;38.17;96665.13;5042450;28;20453;-85
2022/06/14 12:54:58;;;;;;;6.78;2.17;;;;;;;22.71;35.61;96663.97;5030668;28;20050;-84
2022/06/14 12:57:33;;;;;;;;;;;;;;;22.70;37.84;96665.13;5028664;28;20056;-86
2022/06/14 13:00:05;;;;;;;4.88;2.40;;;;;;;22.64;38.48;96653.59;5032105;28;19952;-85
2022/06/14 13:02:41;;;;;;;6.18;2.50;;;;;;;22.59;37.61;96656.75;5032455;28;20042;-85
2022/06/14 13:05:21;;;;;;;4.38;1.92;;;;;;;22.84;38.57;96654.09;5024120;28;20045;-83